Samba — WDI6615 — position and weather

sailwx.info

Track history (hours):
 
Tides and Currents Weather Stations Pressure Air Temp Water Temp Dewpoint Dewpoint Depression Visibility Wind Speed Wind Dir Waves Ship Positions

Samba

Owner: Cook, Allison L, Cataumet, MA. More information available from US FCC via Universal Licensing System and Coast Guard Vessel Documentation Center.

Last reported at 2018-May-22 14:12 UTC. Time now 2018-Aug-17 11:13 UTC.
Position N 41°20' W 071°18'.
Warning: this ship's position is months out of date.

Length 12 m.

Type: Sailing vessel. MMSI: 367720470.

Date/timePositionNaut miles runAvg speedWind from/ knotsBaromVisibWave heightAir tempDewpointWater temp
2018-May-22 14:12N 41°20' W 071°18'47 1.7
2018-May-21 10:32N 41°15' W 072°21'3 7.6
2018-May-21 10:09N 41°15' W 072°25'1 7.1
2018-May-21 09:59N 41°15' W 072°26'3 0.2
2018-May-20 19:41N 41°16' W 072°30'0 0.0
2018-May-20 19:29N 41°16' W 072°30'2 4.3
2018-May-20 19:00N 41°14' W 072°31'  
2018-May-17 13:11N 40°43' W 073°58'2 8.0
2018-May-17 12:56N 40°42' W 074°01'  
2018-May-14 18:43N 39°45' W 074°04'1 5.5
2018-May-14 18:30N 39°43' W 074°05'4 5.3
2018-May-14 17:47N 39°40' W 074°07'2 5.5
2018-May-14 17:29N 39°39' W 074°08'  
Track history (hours):
 
Tides and Currents Weather Stations Pressure Air Temp Water Temp Dewpoint Dewpoint Depression Visibility Wind Speed Wind Dir Waves Ship Positions

Samba

Owner: Cook, Allison L, Cataumet, MA. More information available from US FCC via Universal Licensing System and Coast Guard Vessel Documentation Center.

Last reported at 2018-May-22 14:12 UTC. Time now 2018-Aug-17 11:13 UTC.
Position N 41°20' W 071°18'.
Warning: this ship's position is months out of date.

Length 12 m.

Type: Sailing vessel. MMSI: 367720470.

Date/timePositionNaut miles runAvg speedWind from/ knotsBaromVisibWave heightAir tempDewpointWater temp
2018-May-22 14:12N 41°20' W 071°18'47 1.7
2018-May-21 10:32N 41°15' W 072°21'3 7.6
2018-May-21 10:09N 41°15' W 072°25'1 7.1
2018-May-21 09:59N 41°15' W 072°26'3 0.2
2018-May-20 19:41N 41°16' W 072°30'0 0.0
2018-May-20 19:29N 41°16' W 072°30'2 4.3
2018-May-20 19:00N 41°14' W 072°31'  
2018-May-17 13:11N 40°43' W 073°58'2 8.0
2018-May-17 12:56N 40°42' W 074°01'  
2018-May-14 18:43N 39°45' W 074°04'1 5.5
2018-May-14 18:30N 39°43' W 074°05'4 5.3
2018-May-14 17:47N 39°40' W 074°07'2 5.5
2018-May-14 17:29N 39°39' W 074°08'  

Dump ship's entire track history